createdAt,value
2022-10-06T00:08:21.429Z,18.30
2022-10-06T00:20:22.369Z,19.70
2022-10-06T00:32:22.345Z,16.60
2022-10-06T00:44:22.797Z,20.30
2022-10-06T00:56:23.235Z,16.10
2022-10-06T01:08:23.731Z,16.40
2022-10-06T01:20:24.155Z,21.60
2022-10-06T01:32:24.594Z,15.90
2022-10-06T01:44:25.062Z,14.80
2022-10-06T01:56:25.516Z,16.20
2022-10-06T02:08:26.317Z,22.20
2022-10-06T02:20:26.408Z,17.40
2022-10-06T02:32:26.883Z,16.00
2022-10-06T02:44:27.297Z,18.90
2022-10-06T02:56:27.732Z,17.20
2022-10-06T03:08:28.624Z,18.20
2022-10-06T03:20:28.669Z,20.80
2022-10-06T03:32:29.172Z,24.60
2022-10-06T03:44:29.604Z,18.20
2022-10-06T03:56:30.027Z,18.70
2022-10-06T04:08:30.834Z,16.30
2022-10-06T04:20:30.947Z,18.90
2022-10-06T04:32:31.389Z,18.00
2022-10-06T04:44:31.865Z,24.80
2022-10-06T04:56:32.306Z,34.70
2022-10-06T05:08:33.148Z,26.60
2022-10-06T05:20:33.157Z,36.50
2022-10-06T05:32:36.077Z,34.20
2022-10-06T05:44:34.110Z,29.80
2022-10-06T05:56:34.584Z,37.50
2022-10-06T06:08:34.998Z,38.50
2022-10-06T06:20:35.487Z,35.20
2022-10-06T06:32:35.902Z,36.10
2022-10-06T06:44:36.398Z,34.70
2022-10-06T06:56:36.876Z,30.40
2022-10-06T07:08:37.225Z,27.50
2022-10-06T07:20:37.752Z,28.40
2022-10-06T07:32:38.200Z,26.60
2022-10-06T07:44:38.629Z,24.70
2022-10-06T07:56:39.088Z,19.30
2022-10-06T08:08:39.585Z,13.90
2022-10-06T08:20:40.068Z,11.40
2022-10-06T08:32:40.488Z,10.10
2022-10-06T08:44:40.943Z,8.90
2022-10-06T08:56:41.379Z,5.80
2022-10-06T09:08:41.887Z,8.10
2022-10-06T09:20:42.314Z,4.70
2022-10-06T09:32:42.750Z,7.30
2022-10-06T09:44:43.143Z,5.50
2022-10-06T09:56:43.654Z,3.40
2022-10-06T10:08:44.104Z,4.60
2022-10-06T10:20:44.606Z,3.40
2022-10-06T10:32:45.062Z,4.10
2022-10-06T10:44:45.570Z,5.20
2022-10-06T10:56:46.000Z,6.90
2022-10-06T11:08:46.443Z,4.40
2022-10-06T11:20:46.833Z,4.70
2022-10-06T11:32:47.339Z,4.30
2022-10-06T11:44:47.857Z,4.30
2022-10-06T11:56:48.259Z,4.80
2022-10-06T12:08:48.630Z,4.90
2022-10-06T12:20:49.140Z,4.30
2022-10-06T12:32:49.600Z,6.60
2022-10-06T12:44:50.072Z,5.60
2022-10-06T12:56:50.509Z,5.50
2022-10-06T13:08:50.968Z,7.40
2022-10-06T13:20:51.422Z,8.40
2022-10-06T13:32:51.872Z,4.80
2022-10-06T13:44:52.399Z,5.70
2022-10-06T13:56:52.835Z,5.80
2022-10-06T14:08:53.260Z,7.40
2022-10-06T14:20:53.693Z,5.70
2022-10-06T14:32:54.154Z,7.00
2022-10-06T14:44:54.603Z,7.20
2022-10-06T14:56:55.078Z,5.90
2022-10-06T15:08:55.507Z,9.00
2022-10-06T15:20:55.977Z,6.90
2022-10-06T15:32:56.460Z,10.80
2022-10-06T15:44:56.893Z,7.10
2022-10-06T15:56:57.307Z,9.60
2022-10-06T16:08:57.825Z,13.40
2022-10-06T16:20:58.273Z,11.30
2022-10-06T16:32:58.672Z,11.80
2022-10-06T16:44:59.164Z,10.00
2022-10-06T16:56:59.614Z,12.10
2022-10-06T17:09:00.109Z,10.90
2022-10-06T17:21:00.546Z,17.40
2022-10-06T17:33:00.981Z,13.20
2022-10-06T17:45:01.451Z,12.90
2022-10-06T17:57:01.863Z,15.40
2022-10-06T18:09:02.368Z,15.40
2022-10-06T18:21:02.809Z,12.90
2022-10-06T18:45:03.734Z,13.40
2022-10-06T18:57:04.147Z,18.30
2022-10-06T19:09:04.628Z,17.90
2022-10-06T19:21:09.530Z,16.30
2022-10-06T19:33:05.550Z,23.20
2022-10-06T19:45:05.990Z,20.80
2022-10-06T19:57:06.433Z,20.10
2022-10-06T20:09:06.891Z,27.80
2022-10-06T20:21:07.325Z,30.60
2022-10-06T20:33:07.811Z,26.40
2022-10-06T20:45:10.949Z,23.90
2022-10-06T20:57:08.680Z,26.70
2022-10-06T21:09:09.160Z,27.00
2022-10-06T21:21:09.602Z,28.40
2022-10-06T21:33:10.020Z,21.00
2022-10-06T21:45:10.511Z,21.60
2022-10-06T21:57:10.976Z,21.20
2022-10-06T22:09:11.419Z,19.30
2022-10-06T22:21:11.857Z,18.80
2022-10-06T22:33:12.312Z,21.90
2022-10-06T22:45:12.782Z,23.10
2022-10-06T22:57:13.258Z,22.90
2022-10-06T23:09:13.678Z,27.20
2022-10-06T23:21:14.127Z,22.80
2022-10-06T23:33:14.607Z,23.30
2022-10-06T23:45:15.038Z,26.90
2022-10-06T23:57:15.459Z,26.40
